Time;durP1;ratioP1;P1;durP2;ratioP2;P2;SDS_P1;SDS_P2;PMS_P1;PMS_P2;Temp;Humidity;BMP_temperature;BMP_pressure;BME280_temperature;BME280_humidity;BME280_pressure;Samples;Min_cycle;Max_cycle;Signal;HPM_P1;HPM_P2
2022/09/07 00:01:16;;;;;;;;;3.67;2.00;;;;;22.76;51.60;100982.47;5004440;28;46299;-81
2022/09/07 00:03:42;;;;;;;;;2.67;2.67;;;;;22.73;51.33;100988.84;5002268;28;45536;-82
2022/09/07 00:06:10;;;;;;;;;3.00;2.00;;;;;22.71;51.18;100984.50;5002082;28;45237;-82
2022/09/07 00:08:37;;;;;;;;;1.00;1.00;;;;;22.69;51.42;100984.56;5002146;28;45449;-83
2022/09/07 00:11:06;;;;;;;;;1.67;1.67;;;;;22.65;50.83;100983.88;5000108;28;48653;-82
2022/09/07 00:13:35;;;;;;;;;3.00;1.33;;;;;22.64;51.55;100987.50;5000489;28;45531;-82
2022/09/07 00:16:11;;;;;;;;;1.67;1.67;;;;;22.61;51.56;100987.66;5007642;28;45312;-82
2022/09/07 00:18:37;;;;;;;;;3.00;3.00;;;;;22.58;51.68;100993.16;5021459;28;45435;-82
2022/09/07 00:21:05;;;;;;;;;4.67;3.33;;;;;22.59;51.77;100991.38;5002461;28;46345;-82
2022/09/07 00:23:33;;;;;;;;;3.33;2.67;;;;;22.63;51.93;100998.31;5018625;28;45359;-81
2022/09/07 00:26:06;;;;;;;;;3.67;2.67;;;;;22.64;51.98;100984.84;5019358;28;45457;-81
2022/09/07 00:28:31;;;;;;;;;3.00;3.00;;;;;22.67;52.08;100987.34;5018758;28;45531;-82
2022/09/07 00:30:57;;;;;;;;;2.00;1.33;;;;;22.70;51.98;100983.66;5024002;28;45409;-82
2022/09/07 00:33:24;;;;;;;;;3.67;3.00;;;;;22.73;52.00;100986.19;5009835;28;45439;-83
2022/09/07 00:35:49;;;;;;;;;4.00;3.67;;;;;22.77;52.08;100982.38;5011941;28;45440;-81
2022/09/07 00:38:15;;;;;;;;;2.67;1.67;;;;;22.78;52.14;100981.44;5021480;28;45800;-83
2022/09/07 00:40:41;;;;;;;;;2.67;2.67;;;;;22.77;52.04;100976.13;5002609;28;47036;-82
2022/09/07 00:43:26;;;;;;;;;3.00;3.00;;;;;22.79;51.83;100983.16;5004528;28;45443;-83
2022/09/07 00:45:51;;;;;;;;;1.67;1.67;;;;;22.74;51.71;100974.47;5003080;28;45541;-82
2022/09/07 00:48:19;;;;;;;;;1.00;1.00;;;;;22.71;51.37;100981.81;5024007;28;45430;-82
2022/09/07 00:50:52;;;;;;;;;2.00;2.00;;;;;22.67;51.30;100984.69;5027540;28;45373;-83
2022/09/07 00:53:42;;;;;;;;;1.33;1.33;;;;;22.64;51.45;100984.84;5023523;28;45298;-82
2022/09/07 00:56:08;;;;;;;;;2.67;2.33;;;;;22.60;51.09;100975.19;5018504;28;45347;-81
2022/09/07 00:58:37;;;;;;;;;1.33;1.33;;;;;22.56;51.75;100970.94;5023057;28;45441;-83
2022/09/07 01:01:02;;;;;;;;;0.67;0.00;;;;;22.54;51.67;100972.81;5021810;28;47007;-82
2022/09/07 01:03:35;;;;;;;;;3.67;2.00;;;;;22.53;51.39;100978.25;5021933;28;45591;-82
2022/09/07 01:06:20;;;;;;;;;3.00;3.00;;;;;22.53;51.49;100978.25;5022388;28;45329;-82
2022/09/07 01:08:51;;;;;;;;;1.00;1.00;;;;;22.48;51.53;100980.28;5022036;28;45424;-82
2022/09/07 01:11:19;;;;;;;;;2.00;2.00;;;;;22.43;51.35;100976.03;5021766;28;47628;-82
2022/09/07 01:13:47;;;;;;;;;1.00;1.00;;;;;22.39;51.47;100968.19;5024854;28;45434;-83
2022/09/07 01:16:37;;;;;;;;;1.00;1.00;;;;;22.35;51.42;100966.63;5023761;28;45300;-83
2022/09/07 01:19:31;;;;;;;;;2.67;1.00;;;;;22.28;51.56;100967.88;5021730;28;45405;-82
2022/09/07 01:22:35;;;;;;;;;1.00;1.00;;;;;22.19;51.63;100966.50;5021903;28;46836;-83
2022/09/07 01:25:10;;;;;;;;;0.67;0.67;;;;;22.17;51.79;100965.69;5011350;28;45297;-83
2022/09/07 01:27:56;;;;;;;;;1.67;1.67;;;;;22.19;51.61;100972.75;5003816;28;45313;-83
2022/09/07 01:30:23;;;;;;;;;1.00;1.00;;;;;22.15;51.88;100975.59;5001831;28;45922;-83
2022/09/07 01:33:07;;;;;;;;;1.00;1.00;;;;;22.13;51.87;100964.97;5012365;28;45369;-83
2022/09/07 01:35:55;;;;;;;;;3.00;2.00;;;;;22.09;52.15;100963.34;5021243;28;45478;-83
2022/09/07 01:38:30;;;;;;;;;1.33;1.33;;;;;22.06;52.02;100965.34;5021950;28;45316;-83
2022/09/07 01:41:05;;;;;;;;;1.00;1.00;;;;;22.08;52.23;100966.09;5002130;28;45763;-83
2022/09/07 01:44:07;;;;;;;;;2.00;2.00;;;;;22.02;51.93;100968.16;5018307;28;47223;-82
2022/09/07 01:46:42;;;;;;;;;2.67;1.67;;;;;21.96;51.94;100963.06;5010273;28;45425;-83
2022/09/07 01:49:16;;;;;;;;;1.00;1.00;;;;;21.92;52.44;100972.22;5021809;28;45300;-84
2022/09/07 01:51:46;;;;;;;;;2.00;2.00;;;;;21.84;52.59;100965.47;5023076;28;45545;-83
2022/09/07 01:54:25;;;;;;;;;0.67;0.67;;;;;21.80;52.40;100970.09;5024051;28;45406;-83
2022/09/07 01:56:57;;;;;;;;;1.00;1.00;;;;;21.74;52.77;100968.59;5023648;28;45390;-82
2022/09/07 01:59:31;;;;;;;;;3.00;3.00;;;;;21.69;53.11;100967.06;5022192;28;45268;-82
2022/09/07 02:02:04;;;;;;;;;2.00;2.00;;;;;21.62;53.06;100969.13;5013994;28;45224;-83
2022/09/07 02:04:36;;;;;;;;;2.00;1.00;;;;;21.54;52.79;100974.88;5001908;28;45553;-83
2022/09/07 02:07:21;;;;;;;;;2.00;1.67;;;;;21.46;53.13;100968.09;5003436;28;45237;-83
2022/09/07 02:09:59;;;;;;;;;1.00;1.00;;;;;21.38;53.19;100960.41;5022578;28;45599;-81
2022/09/07 02:12:43;;;;;;;;;1.33;1.00;;;;;21.33;53.93;100965.97;5022070;28;45382;-84
2022/09/07 02:15:15;;;;;;;;;2.00;1.33;;;;;21.27;53.65;100965.34;5024186;28;45429;-83
2022/09/07 02:17:50;;;;;;;;;2.00;2.00;;;;;21.19;53.72;100949.63;5023062;28;45223;-82
2022/09/07 02:20:25;;;;;;;;;1.67;1.00;;;;;21.18;53.97;100945.22;5021943;28;45376;-83
2022/09/07 02:22:56;;;;;;;;;2.00;2.00;;;;;21.11;53.76;100938.38;5021444;28;45272;-82
2022/09/07 02:25:27;;;;;;;;;3.33;2.00;;;;;21.10;54.17;100950.91;5021517;28;47124;-82
2022/09/07 02:28:05;;;;;;;;;2.00;2.00;;;;;21.08;54.29;100942.06;5023473;28;45485;-83
2022/09/07 02:30:30;;;;;;;;;2.33;1.33;;;;;21.07;54.45;100950.19;5024063;28;45406;-82
2022/09/07 02:32:56;;;;;;;;;0.67;0.67;;;;;21.04;54.34;100943.16;5019028;28;45252;-81
2022/09/07 02:35:21;;;;;;;;;2.00;0.67;;;;;21.01;54.24;100953.13;5007504;28;45686;-83
2022/09/07 02:37:49;;;;;;;;;2.00;2.00;;;;;20.99;54.60;100955.88;5014459;28;45198;-83
2022/09/07 02:40:14;;;;;;;;;1.00;1.00;;;;;20.99;54.36;100963.03;5017850;28;45257;-82
2022/09/07 02:42:42;;;;;;;;;1.00;1.00;;;;;20.90;54.70;100945.56;5001724;28;45518;-83
2022/09/07 02:45:11;;;;;;;;;1.00;1.00;;;;;20.86;54.56;100939.47;5002179;28;45500;-83
2022/09/07 02:47:39;;;;;;;;;2.33;1.33;;;;;20.88;55.01;100950.13;5011625;28;45411;-82
2022/09/07 02:50:12;;;;;;;;;2.00;2.00;;;;;20.86;55.07;100955.53;5016005;28;45281;-83
2022/09/07 02:52:53;;;;;;;;;1.00;1.00;;;;;20.84;54.90;100956.53;5002074;28;45337;-83
2022/09/07 02:55:25;;;;;;;;;2.33;2.33;;;;;20.80;55.29;100963.84;5014810;28;46755;-83
2022/09/07 02:58:18;;;;;;;;;1.67;1.67;;;;;20.77;55.40;100963.97;5020494;28;45352;-83
2022/09/07 03:01:05;;;;;;;;;1.00;1.00;;;;;20.69;55.18;100953.59;5007908;28;45315;-84
2022/09/07 03:04:03;;;;;;;;;1.67;1.67;;;;;20.64;55.25;100944.88;5010178;28;45527;-83
2022/09/07 03:06:41;;;;;;;;;2.00;1.33;;;;;20.64;55.06;100946.69;5007360;28;47117;-83
2022/09/07 03:09:13;;;;;;;;;1.33;1.00;;;;;20.62;55.56;100953.91;5021903;28;45281;-83
2022/09/07 03:11:39;;;;;;;;;1.67;1.67;;;;;20.59;55.31;100954.03;5022109;28;45351;-82
2022/09/07 03:14:16;;;;;;;;;2.00;2.00;;;;;20.61;55.27;100965.53;5020495;28;45423;-82
2022/09/07 03:16:42;;;;;;;;;1.33;1.33;;;;;20.59;55.65;100964.75;5023022;28;45470;-82
2022/09/07 03:19:08;;;;;;;;;1.67;1.67;;;;;20.54;55.71;100956.91;5004392;28;45258;-82
2022/09/07 03:21:34;;;;;;;;;1.00;1.00;;;;;20.53;55.51;100956.91;5000243;28;45427;-82
2022/09/07 03:24:00;;;;;;;;;1.00;1.00;;;;;20.52;55.56;100957.88;5017529;28;45789;-82
2022/09/07 03:26:25;;;;;;;;;1.00;1.00;;;;;20.48;56.11;100955.31;5020146;28;48192;-82
2022/09/07 03:28:51;;;;;;;;;4.33;2.67;;;;;20.49;56.13;100967.75;5003171;28;45619;-82
2022/09/07 03:31:16;;;;;;;;;1.33;1.33;;;;;20.51;55.71;100970.38;5002453;28;45305;-82
2022/09/07 03:33:42;;;;;;;;;0.67;0.67;;;;;20.51;55.84;100975.72;5002069;28;45257;-82
2022/09/07 03:36:07;;;;;;;;;3.00;1.33;;;;;20.49;55.97;100970.44;5001877;28;45464;-82
2022/09/07 03:38:33;;;;;;;;;2.67;0.33;;;;;20.54;55.86;100977.44;5002322;28;45451;-83
2022/09/07 03:41:04;;;;;;;;;1.33;1.33;;;;;20.55;55.96;100971.13;5000805;28;45438;-82
2022/09/07 03:43:30;;;;;;;;;1.00;1.00;;;;;20.50;56.15;100973.97;5001931;28;45235;-83
2022/09/07 03:46:04;;;;;;;;;1.00;1.00;;;;;20.49;55.79;100973.09;5000558;28;47884;-82
2022/09/07 03:48:31;;;;;;;;;3.00;1.67;;;;;20.48;56.05;100983.88;5019241;28;45737;-82
2022/09/07 03:51:01;;;;;;;;;2.67;2.00;;;;;20.41;56.32;100977.91;5021477;28;45568;-81
2022/09/07 03:53:32;;;;;;;;;2.00;2.00;;;;;20.41;56.43;100983.25;5022632;28;44784;-81
2022/09/07 03:56:01;;;;;;;;;2.00;1.00;;;;;20.41;55.96;100990.41;5021437;28;45688;-82
2022/09/07 03:58:31;;;;;;;;;1.67;1.67;;;;;20.35;56.26;100988.84;5021448;28;45321;-83
2022/09/07 04:00:58;;;;;;;;;3.00;3.00;;;;;20.26;56.37;100986.53;5025209;28;45244;-83
2022/09/07 04:03:24;;;;;;;;;2.00;0.67;;;;;20.26;56.44;100992.78;5023835;28;45515;-82
2022/09/07 04:05:49;;;;;;;;;1.00;1.00;;;;;20.22;56.82;100991.13;5023456;28;47191;-83
2022/09/07 04:08:14;;;;;;;;;3.00;2.00;;;;;20.15;56.45;100984.28;5023659;28;45553;-82
2022/09/07 04:10:40;;;;;;;;;2.00;2.00;;;;;20.13;56.89;100999.53;5023551;28;45462;-82
2022/09/07 04:13:06;;;;;;;;;0.67;0.00;;;;;20.07;56.64;101001.56;5024190;28;45432;-83
2022/09/07 04:15:32;;;;;;;;;2.33;2.00;;;;;20.03;57.46;101003.50;5023619;28;46976;-83
2022/09/07 04:17:59;;;;;;;;;1.00;1.00;;;;;19.98;57.13;101009.00;5024342;28;45313;-83
2022/09/07 04:20:24;;;;;;;;;2.00;2.00;;;;;19.90;57.18;101008.44;5023565;28;45282;-83
2022/09/07 04:22:50;;;;;;;;;1.67;1.00;;;;;19.91;57.15;101028.88;5024013;28;45250;-83
2022/09/07 04:25:16;;;;;;;;;1.33;1.33;;;;;19.89;57.17;101036.09;5024086;28;45284;-83
2022/09/07 04:27:42;;;;;;;;;4.00;2.50;;;;;19.85;57.71;101031.78;5024455;28;45402;-83
2022/09/07 04:30:08;;;;;;;;;5.00;4.00;;;;;19.74;57.43;101017.97;5023909;28;45411;-84
2022/09/07 04:32:34;;;;;;;;;2.33;1.67;;;;;19.76;57.76;101018.78;5011466;28;45461;-83
2022/09/07 04:34:59;;;;;;;;;3.00;2.00;;;;;19.73;58.12;101014.44;5009712;28;47232;-84
2022/09/07 04:37:25;;;;;;;;;1.33;1.33;;;;;19.74;57.91;101015.28;5003400;28;45621;-82
2022/09/07 04:39:50;;;;;;;;;1.33;1.33;;;;;19.76;58.08;101014.31;5006228;28;45431;-84
2022/09/07 04:42:16;;;;;;;;;4.67;2.00;;;;;19.80;58.14;101021.25;5005772;28;45551;-83
2022/09/07 04:44:42;;;;;;;;;2.00;2.00;;;;;19.79;57.94;101018.66;5006649;28;47001;-83
2022/09/07 04:47:07;;;;;;;;;5.00;2.00;;;;;19.79;57.77;101018.66;5014862;28;45163;-83
2022/09/07 04:49:32;;;;;;;;;2.00;2.00;;;;;19.83;57.99;101029.19;5024146;28;45292;-82
2022/09/07 04:51:58;;;;;;;;;3.50;1.50;;;;;19.80;58.50;101021.25;5002704;28;45663;-83
2022/09/07 04:54:25;;;;;;;;;1.67;1.67;;;;;19.77;58.25;101024.06;5009707;28;45324;-82
2022/09/07 04:56:50;;;;;;;;;3.00;2.00;;;;;19.80;58.07;101026.59;5022887;28;45292;-84
2022/09/07 04:59:16;;;;;;;;;9.25;7.75;;;;;19.78;58.54;101019.56;5023360;28;45228;-82
2022/09/07 05:01:41;;;;;;;;;3.00;3.00;;;;;19.81;58.72;101023.03;5024703;28;45228;-82
2022/09/07 05:04:07;;;;;;;;;4.00;2.33;;;;;19.83;58.30;101017.59;5024040;28;46263;-82
2022/09/07 05:06:32;;;;;;;;;2.67;2.00;;;;;19.81;58.49;101011.47;5022676;28;45491;-82
2022/09/07 05:08:58;;;;;;;;;2.00;2.00;;;;;19.81;58.70;101019.50;5023080;28;45505;-83
2022/09/07 05:11:25;;;;;;;;;3.00;3.00;;;;;19.82;58.90;101024.75;5023175;28;45445;-82
2022/09/07 05:13:50;;;;;;;;;2.00;1.33;;;;;19.82;58.53;101023.91;5024465;28;45546;-82
2022/09/07 05:16:23;;;;;;;;;3.00;2.67;;;;;19.86;58.48;101021.97;5002678;28;45244;-82
2022/09/07 05:18:54;;;;;;;;;2.00;2.00;;;;;19.86;58.89;101019.28;5003423;28;45429;-83
2022/09/07 05:21:24;;;;;;;;;4.00;2.00;;;;;19.92;58.29;101027.97;5010350;28;45465;-82
2022/09/07 05:23:51;;;;;;;;;1.67;1.00;;;;;20.02;58.91;101029.34;5021609;28;47725;-83
2022/09/07 05:26:19;;;;;;;;;3.67;2.67;;;;;20.03;58.69;101023.06;5023520;28;45336;-82
2022/09/07 05:28:44;;;;;;;;;1.33;1.33;;;;;20.05;58.80;101039.06;5019424;28;45284;-82
2022/09/07 05:31:16;;;;;;;;;3.00;2.00;;;;;20.10;58.28;101057.56;5002314;28;45558;-82
2022/09/07 05:33:47;;;;;;;;;3.00;3.00;;;;;20.07;58.40;101047.88;5003636;28;45634;-83
2022/09/07 05:36:12;;;;;;;;;4.67;2.67;;;;;20.05;58.34;101047.94;5002706;28;45492;-83
2022/09/07 05:38:38;;;;;;;;;3.00;1.00;;;;;20.04;58.76;101040.84;5007119;28;45367;-83
2022/09/07 05:41:14;;;;;;;;;4.67;3.67;;;;;19.98;58.90;101029.53;5012114;28;45417;-82
2022/09/07 05:43:40;;;;;;;;;2.00;2.00;;;;;19.95;59.06;101024.31;5002073;28;46030;-84
2022/09/07 05:46:07;;;;;;;;;4.67;3.33;;;;;19.94;58.61;101011.84;5001911;28;45443;-82
2022/09/07 05:48:32;;;;;;;;;4.00;3.00;;;;;19.96;59.16;101020.69;5020678;28;45262;-83
2022/09/07 05:50:58;;;;;;;;;2.00;2.00;;;;;19.95;59.21;101021.63;5021169;28;45272;-83
2022/09/07 05:53:23;;;;;;;;;4.00;1.67;;;;;19.99;59.20;101031.25;5022727;28;45558;-82
2022/09/07 05:55:49;;;;;;;;;3.00;2.00;;;;;19.99;59.25;101039.28;5022562;28;45211;-84
2022/09/07 05:58:15;;;;;;;;;4.00;3.00;;;;;20.02;59.05;101036.47;5020882;28;45190;-84
2022/09/07 06:00:41;;;;;;;;;3.67;3.00;;;;;20.00;59.36;101028.53;5020306;28;45284;-84
2022/09/07 06:03:07;;;;;;;;;3.00;1.33;;;;;20.05;59.29;101039.94;5020325;28;47991;-84
2022/09/07 06:05:32;;;;;;;;;3.33;2.33;;;;;20.09;59.53;101042.47;5020041;28;45451;-84
2022/09/07 06:07:58;;;;;;;;;5.33;2.67;;;;;20.05;59.40;101031.91;5020387;28;45411;-84
2022/09/07 06:10:24;;;;;;;;;2.33;2.00;;;;;20.16;59.12;101038.66;5021648;28;45430;-84
2022/09/07 06:12:50;;;;;;;;;3.00;2.00;;;;;20.15;59.39;101036.88;5020064;28;48081;-84
2022/09/07 06:15:15;;;;;;;;;3.00;3.00;;;;;20.17;59.08;101032.34;5021314;28;45358;-84
2022/09/07 06:17:41;;;;;;;;;3.00;2.00;;;;;20.18;59.07;101037.66;5020057;28;45393;-84
2022/09/07 06:20:07;;;;;;;;;2.67;2.67;;;;;20.19;58.92;101034.03;5019703;28;45420;-83
2022/09/07 06:22:37;;;;;;;;;5.00;3.00;;;;;20.18;58.97;101042.09;5020037;28;46132;-83
2022/09/07 06:25:03;;;;;;;;;6.00;4.00;;;;;20.16;59.02;101034.16;5019987;28;45553;-84
2022/09/07 06:27:29;;;;;;;;;3.00;3.00;;;;;20.19;59.39;101035.84;5021278;28;45451;-83
2022/09/07 06:29:55;;;;;;;;;4.00;3.00;;;;;20.28;58.92;101051.53;5021134;28;45478;-84
2022/09/07 06:32:20;;;;;;;;;5.67;4.00;;;;;20.28;58.77;101033.66;5019629;28;46185;-83
2022/09/07 06:34:46;;;;;;;;;2.33;2.33;;;;;20.34;58.62;101045.94;5019697;28;45449;-84
2022/09/07 06:37:11;;;;;;;;;3.00;2.33;;;;;20.35;58.79;101037.00;5021292;28;45489;-84
2022/09/07 06:39:36;;;;;;;;;4.00;3.00;;;;;20.41;58.63;101047.44;5019889;28;45619;-84
2022/09/07 06:42:03;;;;;;;;;3.33;2.00;;;;;20.46;58.75;101044.59;5021207;28;45406;-84
2022/09/07 06:44:29;;;;;;;;;2.00;1.00;;;;;20.49;58.41;101048.00;5019994;28;45252;-84
2022/09/07 06:46:54;;;;;;;;;3.33;2.00;;;;;20.49;58.55;101039.97;5021856;28;45189;-83
2022/09/07 06:49:20;;;;;;;;;4.00;2.67;;;;;20.51;58.09;101050.63;5022288;28;45293;-83
2022/09/07 06:51:45;;;;;;;;;3.00;3.00;;;;;20.51;58.48;101047.09;5026338;28;45713;-83
2022/09/07 06:54:11;;;;;;;;;4.00;3.00;;;;;20.49;58.67;101042.66;5025632;28;45182;-84
2022/09/07 06:56:36;;;;;;;;;3.67;3.67;;;;;20.53;58.50;101046.09;5021172;28;45375;-84
2022/09/07 06:59:02;;;;;;;;;4.33;2.67;;;;;20.53;58.37;101034.50;5019315;28;45281;-82
2022/09/07 07:01:32;;;;;;;;;1.67;1.67;;;;;20.59;58.51;101031.63;5015364;28;45469;-81
2022/09/07 07:03:58;;;;;;;;;3.00;2.00;;;;;20.62;58.19;101042.19;5012731;28;45253;-82
2022/09/07 07:06:33;;;;;;;;;5.00;3.00;;;;;20.68;58.42;101039.25;5013396;28;45317;-82
2022/09/07 07:08:59;;;;;;;;;5.33;2.67;;;;;20.69;58.69;101035.66;4999183;28;45266;-81
2022/09/07 07:11:24;;;;;;;;;3.00;2.00;;;;;20.72;58.20;101027.50;5000668;28;46020;-81
2022/09/07 07:13:50;;;;;;;;;6.00;3.67;;;;;20.80;58.15;101022.72;5000613;28;45158;-81
2022/09/07 07:16:16;;;;;;;;;5.67;4.00;;;;;20.84;58.19;101026.13;4999431;28;45279;-82
2022/09/07 07:18:42;;;;;;;;;3.00;3.00;;;;;20.90;58.05;101026.75;5000407;28;45210;-82
2022/09/07 07:21:13;;;;;;;;;3.33;2.67;;;;;20.90;58.03;101020.50;5000400;28;46147;-81
2022/09/07 07:23:39;;;;;;;;;3.67;3.67;;;;;20.93;58.53;101017.72;4998666;28;45252;-82
2022/09/07 07:26:15;;;;;;;;;2.33;2.33;;;;;21.00;58.13;101032.56;5000444;28;45291;-82
2022/09/07 07:28:59;;;;;;;;;2.00;1.67;;;;;21.02;58.16;101028.00;5000200;28;45230;-81
2022/09/07 07:31:26;;;;;;;;;3.00;3.00;;;;;21.01;57.92;101028.06;4999865;28;45266;-81
2022/09/07 07:33:52;;;;;;;;;4.00;3.00;;;;;21.00;58.04;101034.38;4997993;28;45416;-81
2022/09/07 07:36:24;;;;;;;;;4.00;2.00;;;;;20.98;57.76;101028.22;5000081;28;45352;-81
2022/09/07 07:38:52;;;;;;;;;4.33;2.67;;;;;21.00;57.92;101019.19;5000161;28;45481;-82
2022/09/07 07:41:20;;;;;;;;;3.67;3.67;;;;;21.08;58.08;101027.75;4998352;28;47073;-81
2022/09/07 07:43:45;;;;;;;;;3.33;2.00;;;;;21.13;58.28;101030.22;4999668;28;45383;-82
2022/09/07 07:46:12;;;;;;;;;3.33;2.67;;;;;21.15;57.69;101023.88;4998332;28;45543;-82
2022/09/07 07:48:38;;;;;;;;;2.67;1.33;;;;;21.16;57.97;101019.38;5018141;28;45545;-82
2022/09/07 07:51:06;;;;;;;;;4.00;4.00;;;;;21.24;57.60;101029.78;5017800;28;47477;-82
2022/09/07 07:53:34;;;;;;;;;3.00;3.00;;;;;21.24;58.27;101017.25;5018481;28;45265;-82
2022/09/07 07:56:00;;;;;;;;;5.33;4.00;;;;;21.30;57.78;101014.31;5017601;28;45461;-82
2022/09/07 07:58:27;;;;;;;;;5.67;2.67;;;;;21.40;57.83;101014.78;4999585;28;45509;-81
2022/09/07 08:01:01;;;;;;;;;5.00;4.00;;;;;21.43;57.88;101008.44;4998244;28;46961;-81
2022/09/07 08:03:26;;;;;;;;;2.67;2.00;;;;;21.55;57.50;101013.25;4998259;28;45458;-81
2022/09/07 08:05:53;;;;;;;;;3.00;2.33;;;;;21.61;57.14;101014.78;4999631;28;45505;-82
2022/09/07 08:08:18;;;;;;;;;3.33;3.00;;;;;21.65;57.13;101011.00;4999292;28;45730;-82
2022/09/07 08:10:46;;;;;;;;;2.00;2.00;;;;;21.69;57.28;101001.91;4998734;28;45595;-82
2022/09/07 08:13:13;;;;;;;;;4.67;3.00;;;;;21.73;57.14;101012.41;5000468;28;45189;-82
2022/09/07 08:15:45;;;;;;;;;4.00;2.67;;;;;21.83;56.79;101001.25;4998914;28;45482;-82
2022/09/07 08:18:15;;;;;;;;;3.33;2.00;;;;;21.87;56.85;101005.56;4998721;28;45545;-82
2022/09/07 08:20:41;;;;;;;;;3.33;2.67;;;;;21.93;56.82;101010.63;4999710;28;46114;-82
2022/09/07 08:23:07;;;;;;;;;2.00;1.67;;;;;21.96;56.80;101002.44;4998402;28;45674;-82
2022/09/07 08:25:34;;;;;;;;;2.67;2.33;;;;;22.07;56.61;101012.63;4998295;28;45411;-82
2022/09/07 08:28:00;;;;;;;;;3.67;2.67;;;;;22.17;56.63;101016.63;5000054;28;45265;-82
2022/09/07 08:30:25;;;;;;;;;3.67;1.67;;;;;22.24;56.47;101002.03;4999131;28;46363;-82
2022/09/07 08:32:51;;;;;;;;;8.33;2.67;;;;;22.32;55.98;101020.41;4998725;28;45267;-83
2022/09/07 08:35:16;;;;;;;;;3.00;2.00;;;;;22.39;56.01;101012.00;4999371;28;45443;-81
2022/09/07 08:37:42;;;;;;;;;3.00;1.67;;;;;22.46;55.83;101005.38;4998592;28;45496;-82
2022/09/07 08:40:14;;;;;;;;;3.00;2.00;;;;;22.62;55.59;100999.28;4997958;28;46837;-82
2022/09/07 08:43:05;;;;;;;;;2.67;2.00;;;;;22.77;55.58;101017.28;5009518;28;45286;-82
2022/09/07 08:45:36;;;;;;;;;5.67;5.00;;;;;22.88;55.30;101011.34;5012541;28;45533;-82
2022/09/07 08:48:04;;;;;;;;;4.67;2.67;;;;;22.98;54.24;101022.53;5016241;28;45278;-81
2022/09/07 08:50:58;;;;;;;;;6.33;5.67;;;;;23.02;54.42;101025.00;5020768;28;47110;-82
2022/09/07 08:53:25;;;;;;;;;4.33;2.00;;;;;23.11;54.35;101013.78;5033919;28;45350;-82
2022/09/07 08:56:05;;;;;;;;;5.00;2.67;;;;;23.22;53.66;101015.91;5021573;28;45463;-82
2022/09/07 08:58:39;;;;;;;;;4.33;3.00;;;;;23.31;53.65;101018.13;5014114;28;45490;-81
2022/09/07 09:01:15;;;;;;;;;3.33;3.00;;;;;23.40;53.16;101014.06;5003113;28;47215;-82
2022/09/07 09:03:42;;;;;;;;;4.67;2.00;;;;;23.48;53.16;101008.28;5002841;28;45957;-81
2022/09/07 09:06:25;;;;;;;;;3.67;2.67;;;;;23.61;52.54;101012.06;5002738;28;45193;-82
2022/09/07 09:09:27;;;;;;;;;5.00;2.67;;;;;23.72;52.47;101015.06;5001974;28;45259;-82
2022/09/07 09:12:08;;;;;;;;;2.67;1.00;;;;;23.75;51.58;101006.81;5012825;28;47399;-81
2022/09/07 09:14:48;;;;;;;;;4.00;2.00;;;;;23.80;51.60;100990.44;5003159;28;45407;-82
2022/09/07 09:17:31;;;;;;;;;5.00;2.00;;;;;23.84;51.72;100999.22;5000681;28;45365;-83
2022/09/07 09:20:20;;;;;;;;;6.33;4.33;;;;;23.86;51.39;101000.84;5002282;28;45376;-83
2022/09/07 09:22:46;;;;;;;;;5.00;4.00;;;;;23.90;51.50;100998.88;4990771;28;45792;-83
2022/09/07 09:25:12;;;;;;;;;2.50;2.50;;;;;23.94;51.10;100993.22;5002023;28;45288;-83
2022/09/07 09:27:37;;;;;;;;;3.00;2.00;;;;;23.97;50.94;100994.88;5000509;28;45442;-83
2022/09/07 09:30:13;;;;;;;;;5.67;2.67;;;;;23.97;50.91;100997.56;5000110;28;45484;-82
2022/09/07 09:32:44;;;;;;;;;5.00;2.33;;;;;23.95;51.15;100995.00;4999832;28;47352;-82
2022/09/07 09:35:14;;;;;;;;;2.67;0.00;;;;;23.97;50.54;101001.13;5001115;28;45257;-82
2022/09/07 09:37:42;;;;;;;;;2.00;2.00;;;;;23.93;50.76;101001.41;5000090;28;45398;-82
2022/09/07 09:40:32;;;;;;;;;6.00;6.00;;;;;23.90;50.71;100994.38;5000261;28;45731;-82
2022/09/07 09:43:20;;;;;;;;;3.00;3.00;;;;;23.88;50.34;100982.81;5001372;28;45462;-82
2022/09/07 09:45:51;;;;;;;;;4.00;4.00;;;;;23.91;50.78;100987.16;5000164;28;45455;-82
2022/09/07 09:48:39;;;;;;;;;2.00;1.33;;;;;23.92;50.17;100991.59;5018297;28;45473;-82
2022/09/07 09:51:06;;;;;;;;;4.00;3.33;;;;;23.93;50.03;100990.66;5019908;28;45307;-82
2022/09/07 09:53:38;;;;;;;;;1.33;1.33;;;;;23.94;50.55;100987.84;5019910;28;46101;-82
2022/09/07 09:56:05;;;;;;;;;3.33;2.33;;;;;23.98;49.89;100983.19;5036273;28;45485;-82
2022/09/07 09:58:36;;;;;;;;;2.67;2.00;;;;;23.99;49.37;100990.28;5020178;28;45413;-83
2022/09/07 10:01:19;;;;;;;;;2.00;1.00;;;;;24.02;49.78;100994.63;5020439;28;46206;-83
2022/09/07 10:03:44;;;;;;;;;2.67;1.00;;;;;24.08;49.79;100978.16;5019709;28;46923;-82
2022/09/07 10:06:16;;;;;;;;;3.33;1.67;;;;;24.16;49.63;100986.66;5019925;28;45241;-83
2022/09/07 10:09:00;;;;;;;;;2.33;2.00;;;;;24.20;48.94;100993.59;5019263;28;45298;-83
2022/09/07 10:11:47;;;;;;;;;4.33;2.33;;;;;24.13;48.85;100979.63;5020890;28;45288;-83
2022/09/07 10:14:36;;;;;;;;;2.00;2.00;;;;;24.10;48.95;100977.09;5019977;28;46974;-83
2022/09/07 10:17:18;;;;;;;;;4.00;2.67;;;;;24.06;49.33;100974.66;5021508;28;45290;-82
2022/09/07 10:19:44;;;;;;;;;4.67;4.00;;;;;24.07;49.10;100987.19;5021784;28;45270;-82
2022/09/07 10:22:35;;;;;;;;;3.00;2.33;;;;;24.07;49.45;100982.66;5019431;28;45213;-83
2022/09/07 10:25:04;;;;;;;;;5.33;2.33;;;;;24.07;49.15;100981.81;5019702;28;46906;-83
2022/09/07 10:27:37;;;;;;;;;2.33;0.67;;;;;24.07;48.95;100979.97;5020950;28;45300;-83
2022/09/07 10:30:12;;;;;;;;;3.67;2.33;;;;;24.13;48.88;100985.00;5020971;28;45553;-83
2022/09/07 10:33:31;;;;;;;;;1.00;1.00;;;;;24.17;47.91;100969.56;5019032;28;45461;-83
2022/09/07 10:36:26;;;;;;;;;2.33;1.00;;;;;24.30;48.00;100978.69;4981941;28;47319;-83
2022/09/07 10:39:12;;;;;;;;;3.67;2.00;;;;;24.43;46.97;100978.81;4999070;28;45289;-83
2022/09/07 10:41:51;;;;;;;;;2.00;2.00;;;;;24.50;46.72;100971.28;5019032;28;45361;-82
2022/09/07 10:44:45;;;;;;;;;2.33;1.67;;;;;24.62;46.94;100979.53;5019442;28;45445;-83
2022/09/07 10:47:29;;;;;;;;;2.00;2.00;;;;;24.73;46.20;100967.25;5020620;28;46308;-83
2022/09/07 10:50:21;;;;;;;;;2.00;2.00;;;;;24.79;46.22;100970.44;5018909;28;45474;-82
2022/09/07 10:53:05;;;;;;;;;2.00;2.00;;;;;24.86;45.93;100965.56;5018930;28;45290;-83
2022/09/07 10:55:35;;;;;;;;;2.33;2.33;;;;;24.87;45.80;100962.78;5018579;28;45452;-83
2022/09/07 10:58:32;;;;;;;;;0.67;0.67;;;;;24.86;45.72;100974.50;5018848;28;48319;-83
2022/09/07 11:01:33;;;;;;;;;4.00;2.33;;;;;24.73;45.84;100962.75;5004198;28;45238;-83
2022/09/07 11:04:07;;;;;;;;;3.67;2.67;;;;;24.65;45.31;100957.81;5003567;28;45559;-83
2022/09/07 11:06:42;;;;;;;;;1.00;1.00;;;;;24.63;45.82;100956.16;5013746;28;46375;-83
2022/09/07 11:09:30;;;;;;;;;3.33;2.00;;;;;24.70;46.15;100946.78;4999815;28;46268;-83
2022/09/07 11:12:02;;;;;;;;;2.33;2.00;;;;;24.77;45.42;100942.72;5000915;28;45297;-82
2022/09/07 11:14:33;;;;;;;;;2.00;2.00;;;;;24.82;46.00;100948.72;5004143;28;45454;-83
2022/09/07 11:17:04;;;;;;;;;1.67;1.67;;;;;24.83;45.41;100953.16;5003486;28;45218;-83
2022/09/07 11:19:38;;;;;;;;;2.33;2.33;;;;;24.83;45.11;100949.56;5000486;28;45410;-82
2022/09/07 11:22:11;;;;;;;;;2.00;1.00;;;;;24.79;45.20;100953.41;5000465;28;45337;-83
2022/09/07 11:24:45;;;;;;;;;1.67;1.67;;;;;24.66;45.89;100947.91;4999561;28;45288;-82
2022/09/07 11:27:19;;;;;;;;;1.67;1.67;;;;;24.53;46.06;100941.50;5015878;28;45573;-82
2022/09/07 11:29:51;;;;;;;;;4.67;3.67;;;;;24.43;46.24;100950.09;5009571;28;46509;-82
2022/09/07 11:32:20;;;;;;;;;3.00;3.00;;;;;24.36;46.17;100948.72;4998779;28;45926;-82
2022/09/07 11:35:04;;;;;;;;;3.67;2.00;;;;;24.29;46.77;100939.25;4998651;28;45265;-82
2022/09/07 11:37:41;;;;;;;;;4.00;3.00;;;;;24.26;46.49;100946.63;4999250;28;45288;-83
2022/09/07 11:40:20;;;;;;;;;2.00;2.00;;;;;24.20;46.72;100937.09;4999949;28;45392;-83
2022/09/07 11:42:59;;;;;;;;;3.00;2.00;;;;;24.13;47.29;100933.88;4999098;28;45391;-82
2022/09/07 11:45:34;;;;;;;;;3.67;1.00;;;;;24.03;46.90;100932.69;5000095;28;45399;-83